LNG Dream — C6VO5 — position and weather

sailwx.info

Track history (hours):
 
Tides and Currents Weather Stations Pressure Air Temp Water Temp Dewpoint Dewpoint Depression Visibility Wind Speed Wind Dir Waves Ship Positions

LNG Dream

Last reported at 2016-Feb-05 07:33 UTC. Time now 2016-Feb-10 22:06 UTC.
Position N 33°54' E 134°56'.

Length 289.6 m; beam 49 m.

Type: Ship (hazmat cat A). MMSI: 309065000.

Date/timePositionNaut miles runAvg speedWind from/ knotsBaromVisibWave heightAir tempDewpointWater temp
2016-Feb-05 07:33N 33°54' E 134°56'1414.5
2016-Feb-05 06:33N 34°09' E 134°56'1413.9
2016-Feb-05 05:33N 34°22' E 135°01'1515.4
2016-Feb-05 04:33N 34°31' E 135°16'7 7.0
2016-Feb-05 03:33N 34°33' E 135°24'0 0.0
2016-Feb-04 03:33N 34°33' E 135°24'2 1.5
2016-Feb-04 02:33N 34°33' E 135°22'9 9.5
2016-Feb-04 01:34N 34°29' E 135°12'1414.1
2016-Feb-04 00:33N 34°19' E 135°00'1111.1
2016-Feb-03 23:33N 34°08' E 134°59'1010.2
2016-Feb-03 22:33N 33°58' E 134°59'  
Track history (hours):
 
Tides and Currents Weather Stations Pressure Air Temp Water Temp Dewpoint Dewpoint Depression Visibility Wind Speed Wind Dir Waves Ship Positions

LNG Dream

Last reported at 2016-Feb-05 07:33 UTC. Time now 2016-Feb-10 22:06 UTC.
Position N 33°54' E 134°56'.

Length 289.6 m; beam 49 m.

Type: Ship (hazmat cat A). MMSI: 309065000.

Date/timePositionNaut miles runAvg speedWind from/ knotsBaromVisibWave heightAir tempDewpointWater temp
2016-Feb-05 07:33N 33°54' E 134°56'1414.5
2016-Feb-05 06:33N 34°09' E 134°56'1413.9
2016-Feb-05 05:33N 34°22' E 135°01'1515.4
2016-Feb-05 04:33N 34°31' E 135°16'7 7.0
2016-Feb-05 03:33N 34°33' E 135°24'0 0.0
2016-Feb-04 03:33N 34°33' E 135°24'2 1.5
2016-Feb-04 02:33N 34°33' E 135°22'9 9.5
2016-Feb-04 01:34N 34°29' E 135°12'1414.1
2016-Feb-04 00:33N 34°19' E 135°00'1111.1
2016-Feb-03 23:33N 34°08' E 134°59'1010.2
2016-Feb-03 22:33N 33°58' E 134°59'  

Dump ship's entire track history